sensor_id;sensor_type;location;lat;lon;timestamp;P1;durP1;ratioP1;P2;durP2;ratioP2
22752;SDS011;11543;43.144;24.684;2023-03-01T00:01:00;12.82;;;8.65;;
22752;SDS011;11543;43.144;24.684;2023-03-01T00:03:28;14.32;;;9.00;;
22752;SDS011;11543;43.144;24.684;2023-03-01T00:05:53;14.65;;;9.35;;
22752;SDS011;11543;43.144;24.684;2023-03-01T00:08:19;12.38;;;8.68;;
22752;SDS011;11543;43.144;24.684;2023-03-01T00:10:44;14.93;;;9.27;;
22752;SDS011;11543;43.144;24.684;2023-03-01T00:13:10;13.27;;;8.80;;
22752;SDS011;11543;43.144;24.684;2023-03-01T00:15:39;12.15;;;8.50;;
22752;SDS011;11543;43.144;24.684;2023-03-01T00:18:06;13.27;;;9.05;;
22752;SDS011;11543;43.144;24.684;2023-03-01T00:20:32;15.07;;;9.38;;
22752;SDS011;11543;43.144;24.684;2023-03-01T00:22:57;12.57;;;7.97;;
22752;SDS011;11543;43.144;24.684;2023-03-01T00:25:23;13.18;;;8.85;;
22752;SDS011;11543;43.144;24.684;2023-03-01T00:27:48;11.73;;;7.85;;
22752;SDS011;11543;43.144;24.684;2023-03-01T00:30:14;11.30;;;7.43;;
22752;SDS011;11543;43.144;24.684;2023-03-01T00:32:40;12.00;;;7.05;;
22752;SDS011;11543;43.144;24.684;2023-03-01T00:35:05;12.38;;;7.50;;
22752;SDS011;11543;43.144;24.684;2023-03-01T00:37:31;10.95;;;7.65;;
22752;SDS011;11543;43.144;24.684;2023-03-01T00:39:57;11.05;;;7.68;;
22752;SDS011;11543;43.144;24.684;2023-03-01T00:42:22;10.88;;;7.13;;
22752;SDS011;11543;43.144;24.684;2023-03-01T00:44:48;10.25;;;6.90;;
22752;SDS011;11543;43.144;24.684;2023-03-01T00:47:13;10.07;;;7.18;;
22752;SDS011;11543;43.144;24.684;2023-03-01T00:49:39;9.25;;;6.60;;
22752;SDS011;11543;43.144;24.684;2023-03-01T00:52:05;10.00;;;6.97;;
22752;SDS011;11543;43.144;24.684;2023-03-01T00:54:30;9.15;;;6.60;;
22752;SDS011;11543;43.144;24.684;2023-03-01T00:56:56;9.82;;;6.50;;
22752;SDS011;11543;43.144;24.684;2023-03-01T00:59:21;8.52;;;6.22;;
22752;SDS011;11543;43.144;24.684;2023-03-01T01:01:47;8.85;;;6.22;;
22752;SDS011;11543;43.144;24.684;2023-03-01T01:04:13;9.40;;;6.13;;
22752;SDS011;11543;43.144;24.684;2023-03-01T01:06:39;8.90;;;6.13;;
22752;SDS011;11543;43.144;24.684;2023-03-01T01:09:08;8.73;;;6.00;;
22752;SDS011;11543;43.144;24.684;2023-03-01T01:11:42;9.40;;;6.35;;
22752;SDS011;11543;43.144;24.684;2023-03-01T01:14:11;9.43;;;6.53;;
22752;SDS011;11543;43.144;24.684;2023-03-01T01:16:37;11.77;;;6.75;;
22752;SDS011;11543;43.144;24.684;2023-03-01T01:19:03;10.45;;;6.95;;
22752;SDS011;11543;43.144;24.684;2023-03-01T01:21:29;10.70;;;7.25;;
22752;SDS011;11543;43.144;24.684;2023-03-01T01:23:55;10.10;;;6.85;;
22752;SDS011;11543;43.144;24.684;2023-03-01T01:26:26;10.63;;;7.20;;
22752;SDS011;11543;43.144;24.684;2023-03-01T01:28:55;11.55;;;7.35;;
22752;SDS011;11543;43.144;24.684;2023-03-01T01:31:22;12.32;;;8.00;;
22752;SDS011;11543;43.144;24.684;2023-03-01T01:33:49;12.15;;;7.60;;
22752;SDS011;11543;43.144;24.684;2023-03-01T01:36:15;10.57;;;7.82;;
22752;SDS011;11543;43.144;24.684;2023-03-01T01:38:41;8.60;;;6.40;;
22752;SDS011;11543;43.144;24.684;2023-03-01T01:41:07;10.50;;;7.47;;
22752;SDS011;11543;43.144;24.684;2023-03-01T01:43:40;9.38;;;7.00;;
22752;SDS011;11543;43.144;24.684;2023-03-01T01:46:27;12.38;;;8.73;;
22752;SDS011;11543;43.144;24.684;2023-03-01T01:48:57;10.25;;;7.75;;
22752;SDS011;11543;43.144;24.684;2023-03-01T01:51:30;9.50;;;7.03;;
22752;SDS011;11543;43.144;24.684;2023-03-01T01:54:03;9.82;;;7.38;;
22752;SDS011;11543;43.144;24.684;2023-03-01T01:56:35;8.82;;;7.07;;
22752;SDS011;11543;43.144;24.684;2023-03-01T01:59:04;11.10;;;7.65;;
22752;SDS011;11543;43.144;24.684;2023-03-01T02:01:30;9.13;;;6.90;;
22752;SDS011;11543;43.144;24.684;2023-03-01T02:03:56;10.27;;;6.93;;
22752;SDS011;11543;43.144;24.684;2023-03-01T02:06:25;10.55;;;7.50;;
22752;SDS011;11543;43.144;24.684;2023-03-01T02:08:55;10.93;;;7.60;;
22752;SDS011;11543;43.144;24.684;2023-03-01T02:11:25;9.70;;;7.38;;
22752;SDS011;11543;43.144;24.684;2023-03-01T02:13:52;10.77;;;7.43;;
22752;SDS011;11543;43.144;24.684;2023-03-01T02:16:19;10.98;;;7.53;;
22752;SDS011;11543;43.144;24.684;2023-03-01T02:18:45;9.57;;;6.93;;
22752;SDS011;11543;43.144;24.684;2023-03-01T02:21:17;9.40;;;6.70;;
22752;SDS011;11543;43.144;24.684;2023-03-01T02:23:55;10.20;;;7.60;;
22752;SDS011;11543;43.144;24.684;2023-03-01T02:28:50;13.05;;;8.95;;
22752;SDS011;11543;43.144;24.684;2023-03-01T02:31:16;13.27;;;8.43;;
22752;SDS011;11543;43.144;24.684;2023-03-01T02:34:03;10.77;;;7.85;;
22752;SDS011;11543;43.144;24.684;2023-03-01T02:36:37;11.93;;;8.30;;
22752;SDS011;11543;43.144;24.684;2023-03-01T02:39:05;14.90;;;8.80;;
22752;SDS011;11543;43.144;24.684;2023-03-01T02:41:39;11.02;;;7.80;;
22752;SDS011;11543;43.144;24.684;2023-03-01T02:44:07;10.27;;;7.45;;
22752;SDS011;11543;43.144;24.684;2023-03-01T02:46:33;11.30;;;7.60;;
22752;SDS011;11543;43.144;24.684;2023-03-01T02:55:09;14.60;;;9.45;;
22752;SDS011;11543;43.144;24.684;2023-03-01T02:57:38;12.27;;;8.75;;
22752;SDS011;11543;43.144;24.684;2023-03-01T03:00:09;12.88;;;9.25;;
22752;SDS011;11543;43.144;24.684;2023-03-01T03:02:45;12.98;;;8.35;;
22752;SDS011;11543;43.144;24.684;2023-03-01T03:05:22;14.23;;;9.38;;
22752;SDS011;11543;43.144;24.684;2023-03-01T03:07:50;12.23;;;8.10;;
22752;SDS011;11543;43.144;24.684;2023-03-01T03:10:21;14.20;;;9.07;;
22752;SDS011;11543;43.144;24.684;2023-03-01T03:19:31;13.48;;;9.10;;
22752;SDS011;11543;43.144;24.684;2023-03-01T03:21:56;13.52;;;8.90;;
22752;SDS011;11543;43.144;24.684;2023-03-01T03:24:22;13.75;;;8.93;;
22752;SDS011;11543;43.144;24.684;2023-03-01T03:26:47;14.40;;;9.23;;
22752;SDS011;11543;43.144;24.684;2023-03-01T03:29:13;13.05;;;8.23;;
22752;SDS011;11543;43.144;24.684;2023-03-01T03:31:39;10.80;;;7.60;;
22752;SDS011;11543;43.144;24.684;2023-03-01T03:34:04;11.00;;;7.35;;
22752;SDS011;11543;43.144;24.684;2023-03-01T03:36:29;10.07;;;6.85;;
22752;SDS011;11543;43.144;24.684;2023-03-01T03:38:55;11.40;;;7.45;;
22752;SDS011;11543;43.144;24.684;2023-03-01T03:41:21;11.23;;;8.07;;
22752;SDS011;11543;43.144;24.684;2023-03-01T03:43:46;11.20;;;8.40;;
22752;SDS011;11543;43.144;24.684;2023-03-01T03:46:12;11.40;;;7.82;;
22752;SDS011;11543;43.144;24.684;2023-03-01T03:48:39;12.02;;;8.63;;
22752;SDS011;11543;43.144;24.684;2023-03-01T03:51:06;11.57;;;7.55;;
22752;SDS011;11543;43.144;24.684;2023-03-01T03:53:35;10.27;;;7.57;;
22752;SDS011;11543;43.144;24.684;2023-03-01T03:56:00;10.50;;;7.43;;
22752;SDS011;11543;43.144;24.684;2023-03-01T03:58:26;10.23;;;7.65;;
22752;SDS011;11543;43.144;24.684;2023-03-01T04:00:52;10.18;;;7.35;;
22752;SDS011;11543;43.144;24.684;2023-03-01T04:03:21;10.02;;;6.78;;
22752;SDS011;11543;43.144;24.684;2023-03-01T04:05:47;10.13;;;7.10;;
22752;SDS011;11543;43.144;24.684;2023-03-01T04:08:15;10.02;;;7.10;;
22752;SDS011;11543;43.144;24.684;2023-03-01T04:10:45;9.82;;;6.40;;
22752;SDS011;11543;43.144;24.684;2023-03-01T04:13:13;11.02;;;7.05;;
22752;SDS011;11543;43.144;24.684;2023-03-01T04:15:41;8.60;;;6.38;;
22752;SDS011;11543;43.144;24.684;2023-03-01T04:18:08;10.05;;;7.13;;
22752;SDS011;11543;43.144;24.684;2023-03-01T04:20:37;9.05;;;6.80;;
22752;SDS011;11543;43.144;24.684;2023-03-01T04:23:10;9.30;;;6.88;;
22752;SDS011;11543;43.144;24.684;2023-03-01T04:25:56;9.57;;;7.15;;
22752;SDS011;11543;43.144;24.684;2023-03-01T04:28:28;12.55;;;7.40;;
22752;SDS011;11543;43.144;24.684;2023-03-01T04:30:56;11.55;;;8.15;;
22752;SDS011;11543;43.144;24.684;2023-03-01T04:33:23;10.52;;;7.45;;
22752;SDS011;11543;43.144;24.684;2023-03-01T04:35:49;10.75;;;7.20;;
22752;SDS011;11543;43.144;24.684;2023-03-01T04:38:18;10.65;;;6.90;;
22752;SDS011;11543;43.144;24.684;2023-03-01T04:40:45;9.90;;;6.72;;
22752;SDS011;11543;43.144;24.684;2023-03-01T04:43:10;9.57;;;6.65;;
22752;SDS011;11543;43.144;24.684;2023-03-01T04:45:39;9.68;;;6.43;;
22752;SDS011;11543;43.144;24.684;2023-03-01T04:48:04;10.32;;;6.53;;
22752;SDS011;11543;43.144;24.684;2023-03-01T04:50:30;9.15;;;6.40;;
22752;SDS011;11543;43.144;24.684;2023-03-01T04:52:56;9.73;;;6.68;;
22752;SDS011;11543;43.144;24.684;2023-03-01T04:55:27;10.02;;;6.40;;
22752;SDS011;11543;43.144;24.684;2023-03-01T04:57:53;8.82;;;6.45;;
22752;SDS011;11543;43.144;24.684;2023-03-01T05:00:20;9.98;;;6.95;;
22752;SDS011;11543;43.144;24.684;2023-03-01T05:02:50;10.13;;;6.85;;
22752;SDS011;11543;43.144;24.684;2023-03-01T05:05:21;11.63;;;6.93;;
22752;SDS011;11543;43.144;24.684;2023-03-01T05:07:53;9.32;;;6.55;;
22752;SDS011;11543;43.144;24.684;2023-03-01T05:10:23;10.00;;;6.60;;
22752;SDS011;11543;43.144;24.684;2023-03-01T05:12:49;11.73;;;7.03;;
22752;SDS011;11543;43.144;24.684;2023-03-01T05:15:14;9.75;;;6.75;;
22752;SDS011;11543;43.144;24.684;2023-03-01T05:17:40;10.00;;;6.88;;
22752;SDS011;11543;43.144;24.684;2023-03-01T05:20:06;9.80;;;6.88;;
22752;SDS011;11543;43.144;24.684;2023-03-01T05:22:34;10.82;;;6.72;;
22752;SDS011;11543;43.144;24.684;2023-03-01T05:25:00;9.73;;;6.80;;
22752;SDS011;11543;43.144;24.684;2023-03-01T05:27:26;11.48;;;7.28;;
22752;SDS011;11543;43.144;24.684;2023-03-01T05:29:51;10.88;;;6.60;;
22752;SDS011;11543;43.144;24.684;2023-03-01T05:32:17;10.98;;;7.07;;
22752;SDS011;11543;43.144;24.684;2023-03-01T05:34:42;11.27;;;7.22;;
22752;SDS011;11543;43.144;24.684;2023-03-01T05:37:09;11.15;;;6.85;;
22752;SDS011;11543;43.144;24.684;2023-03-01T05:39:34;10.65;;;7.35;;
22752;SDS011;11543;43.144;24.684;2023-03-01T05:42:01;11.98;;;7.63;;
22752;SDS011;11543;43.144;24.684;2023-03-01T05:44:27;12.40;;;7.60;;
22752;SDS011;11543;43.144;24.684;2023-03-01T05:46:54;12.52;;;7.75;;
22752;SDS011;11543;43.144;24.684;2023-03-01T05:49:20;13.38;;;7.93;;
22752;SDS011;11543;43.144;24.684;2023-03-01T05:51:49;13.60;;;8.52;;
22752;SDS011;11543;43.144;24.684;2023-03-01T05:54:17;14.20;;;8.18;;
22752;SDS011;11543;43.144;24.684;2023-03-01T05:56:43;14.13;;;8.40;;
22752;SDS011;11543;43.144;24.684;2023-03-01T05:59:10;13.70;;;8.73;;
22752;SDS011;11543;43.144;24.684;2023-03-01T06:01:36;13.63;;;8.65;;
22752;SDS011;11543;43.144;24.684;2023-03-01T06:04:02;13.18;;;8.18;;
22752;SDS011;11543;43.144;24.684;2023-03-01T06:06:28;14.48;;;8.57;;
22752;SDS011;11543;43.144;24.684;2023-03-01T06:08:54;14.18;;;8.90;;
22752;SDS011;11543;43.144;24.684;2023-03-01T06:11:20;12.65;;;8.32;;
22752;SDS011;11543;43.144;24.684;2023-03-01T06:13:46;12.07;;;8.02;;
22752;SDS011;11543;43.144;24.684;2023-03-01T06:16:12;13.98;;;8.70;;
22752;SDS011;11543;43.144;24.684;2023-03-01T06:18:39;12.93;;;8.07;;
22752;SDS011;11543;43.144;24.684;2023-03-01T06:21:05;12.75;;;8.52;;
22752;SDS011;11543;43.144;24.684;2023-03-01T06:23:31;14.30;;;9.07;;
22752;SDS011;11543;43.144;24.684;2023-03-01T06:25:57;13.23;;;8.52;;
22752;SDS011;11543;43.144;24.684;2023-03-01T06:28:23;14.23;;;8.68;;
22752;SDS011;11543;43.144;24.684;2023-03-01T06:30:52;12.95;;;8.23;;
22752;SDS011;11543;43.144;24.684;2023-03-01T06:33:18;14.32;;;8.25;;
22752;SDS011;11543;43.144;24.684;2023-03-01T06:35:45;13.80;;;8.70;;
22752;SDS011;11543;43.144;24.684;2023-03-01T06:38:11;15.43;;;8.85;;
22752;SDS011;11543;43.144;24.684;2023-03-01T06:40:40;15.98;;;9.25;;
22752;SDS011;11543;43.144;24.684;2023-03-01T06:43:06;12.50;;;8.30;;
22752;SDS011;11543;43.144;24.684;2023-03-01T06:45:32;13.50;;;8.10;;
22752;SDS011;11543;43.144;24.684;2023-03-01T06:48:05;12.75;;;8.02;;
22752;SDS011;11543;43.144;24.684;2023-03-01T06:50:31;12.63;;;8.00;;
22752;SDS011;11543;43.144;24.684;2023-03-01T06:52:58;11.05;;;7.15;;
22752;SDS011;11543;43.144;24.684;2023-03-01T06:55:26;13.15;;;8.55;;
22752;SDS011;11543;43.144;24.684;2023-03-01T06:57:55;12.52;;;7.75;;
22752;SDS011;11543;43.144;24.684;2023-03-01T07:00:26;10.30;;;6.47;;
22752;SDS011;11543;43.144;24.684;2023-03-01T07:02:52;10.85;;;7.32;;
22752;SDS011;11543;43.144;24.684;2023-03-01T07:05:18;10.68;;;6.90;;
22752;SDS011;11543;43.144;24.684;2023-03-01T07:07:44;10.98;;;6.65;;
22752;SDS011;11543;43.144;24.684;2023-03-01T07:10:10;12.25;;;7.10;;
22752;SDS011;11543;43.144;24.684;2023-03-01T07:12:36;9.10;;;6.47;;
22752;SDS011;11543;43.144;24.684;2023-03-01T07:15:02;9.90;;;6.55;;
22752;SDS011;11543;43.144;24.684;2023-03-01T07:17:28;10.02;;;6.35;;
22752;SDS011;11543;43.144;24.684;2023-03-01T07:19:53;9.30;;;6.20;;
22752;SDS011;11543;43.144;24.684;2023-03-01T07:22:19;10.65;;;6.80;;
22752;SDS011;11543;43.144;24.684;2023-03-01T07:24:44;11.57;;;7.22;;
22752;SDS011;11543;43.144;24.684;2023-03-01T07:27:10;11.45;;;6.72;;
22752;SDS011;11543;43.144;24.684;2023-03-01T07:29:35;11.23;;;6.80;;
22752;SDS011;11543;43.144;24.684;2023-03-01T07:32:01;12.95;;;6.93;;
22752;SDS011;11543;43.144;24.684;2023-03-01T07:34:28;9.73;;;6.53;;
22752;SDS011;11543;43.144;24.684;2023-03-01T07:36:54;12.40;;;6.82;;
22752;SDS011;11543;43.144;24.684;2023-03-01T07:39:19;13.18;;;8.05;;
22752;SDS011;11543;43.144;24.684;2023-03-01T07:41:44;14.02;;;8.52;;
22752;SDS011;11543;43.144;24.684;2023-03-01T07:44:10;18.42;;;10.63;;
22752;SDS011;11543;43.144;24.684;2023-03-01T07:46:36;20.58;;;9.23;;
22752;SDS011;11543;43.144;24.684;2023-03-01T07:49:01;18.23;;;10.15;;
22752;SDS011;11543;43.144;24.684;2023-03-01T07:51:27;23.33;;;9.73;;
22752;SDS011;11543;43.144;24.684;2023-03-01T07:53:52;17.25;;;8.95;;
22752;SDS011;11543;43.144;24.684;2023-03-01T07:56:18;12.88;;;8.32;;
22752;SDS011;11543;43.144;24.684;2023-03-01T07:58:44;17.33;;;8.65;;
22752;SDS011;11543;43.144;24.684;2023-03-01T08:01:11;14.57;;;8.07;;
22752;SDS011;11543;43.144;24.684;2023-03-01T08:03:39;11.65;;;7.28;;
22752;SDS011;11543;43.144;24.684;2023-03-01T08:06:06;10.32;;;6.70;;
22752;SDS011;11543;43.144;24.684;2023-03-01T08:08:33;9.70;;;6.38;;
22752;SDS011;11543;43.144;24.684;2023-03-01T08:10:59;10.57;;;6.38;;
22752;SDS011;11543;43.144;24.684;2023-03-01T08:13:27;9.75;;;6.20;;
22752;SDS011;11543;43.144;24.684;2023-03-01T08:15:53;8.98;;;5.68;;
22752;SDS011;11543;43.144;24.684;2023-03-01T08:18:19;8.10;;;5.45;;
22752;SDS011;11543;43.144;24.684;2023-03-01T08:20:46;8.93;;;5.93;;
22752;SDS011;11543;43.144;24.684;2023-03-01T08:23:12;10.10;;;5.97;;
22752;SDS011;11543;43.144;24.684;2023-03-01T08:25:38;9.77;;;5.47;;
22752;SDS011;11543;43.144;24.684;2023-03-01T08:28:04;11.18;;;5.50;;
22752;SDS011;11543;43.144;24.684;2023-03-01T08:30:30;8.48;;;5.50;;
22752;SDS011;11543;43.144;24.684;2023-03-01T08:32:56;8.65;;;5.57;;
22752;SDS011;11543;43.144;24.684;2023-03-01T08:35:22;8.93;;;5.45;;
22752;SDS011;11543;43.144;24.684;2023-03-01T08:37:48;9.27;;;5.57;;
22752;SDS011;11543;43.144;24.684;2023-03-01T08:40:14;9.25;;;5.75;;
22752;SDS011;11543;43.144;24.684;2023-03-01T08:42:40;12.85;;;7.72;;
22752;SDS011;11543;43.144;24.684;2023-03-01T08:45:08;18.88;;;10.43;;
22752;SDS011;11543;43.144;24.684;2023-03-01T08:47:34;17.80;;;10.77;;
22752;SDS011;11543;43.144;24.684;2023-03-01T08:50:00;15.27;;;9.95;;
22752;SDS011;11543;43.144;24.684;2023-03-01T08:52:25;16.92;;;11.20;;
22752;SDS011;11543;43.144;24.684;2023-03-01T08:54:51;19.85;;;11.98;;
22752;SDS011;11543;43.144;24.684;2023-03-01T08:57:17;17.42;;;11.18;;
22752;SDS011;11543;43.144;24.684;2023-03-01T08:59:43;17.15;;;10.32;;
22752;SDS011;11543;43.144;24.684;2023-03-01T09:02:14;22.13;;;11.88;;
22752;SDS011;11543;43.144;24.684;2023-03-01T09:04:42;13.07;;;9.13;;
22752;SDS011;11543;43.144;24.684;2023-03-01T09:07:08;40.85;;;18.02;;
22752;SDS011;11543;43.144;24.684;2023-03-01T09:09:34;20.38;;;10.80;;
22752;SDS011;11543;43.144;24.684;2023-03-01T09:12:00;16.92;;;10.10;;
22752;SDS011;11543;43.144;24.684;2023-03-01T09:14:26;16.42;;;9.15;;
22752;SDS011;11543;43.144;24.684;2023-03-01T09:16:52;16.40;;;9.82;;
22752;SDS011;11543;43.144;24.684;2023-03-01T09:19:17;14.82;;;8.88;;
22752;SDS011;11543;43.144;24.684;2023-03-01T09:21:43;14.45;;;9.30;;
22752;SDS011;11543;43.144;24.684;2023-03-01T09:24:17;14.85;;;9.15;;
22752;SDS011;11543;43.144;24.684;2023-03-01T09:26:44;15.75;;;9.38;;
22752;SDS011;11543;43.144;24.684;2023-03-01T09:29:12;16.15;;;9.50;;
22752;SDS011;11543;43.144;24.684;2023-03-01T09:31:39;16.02;;;9.63;;
22752;SDS011;11543;43.144;24.684;2023-03-01T09:34:05;18.48;;;10.48;;
22752;SDS011;11543;43.144;24.684;2023-03-01T09:36:31;16.13;;;9.65;;
22752;SDS011;11543;43.144;24.684;2023-03-01T09:38:57;13.55;;;8.27;;
22752;SDS011;11543;43.144;24.684;2023-03-01T09:46:44;17.95;;;10.75;;
22752;SDS011;11543;43.144;24.684;2023-03-01T09:49:12;15.65;;;9.52;;
22752;SDS011;11543;43.144;24.684;2023-03-01T09:51:42;19.13;;;9.60;;
22752;SDS011;11543;43.144;24.684;2023-03-01T09:54:17;13.35;;;8.57;;
22752;SDS011;11543;43.144;24.684;2023-03-01T09:56:53;13.98;;;8.98;;
22752;SDS011;11543;43.144;24.684;2023-03-01T09:59:30;14.00;;;8.85;;
22752;SDS011;11543;43.144;24.684;2023-03-01T10:05:59;13.23;;;8.43;;
22752;SDS011;11543;43.144;24.684;2023-03-01T10:10:39;15.48;;;9.30;;
22752;SDS011;11543;43.144;24.684;2023-03-01T10:13:33;15.15;;;9.38;;
22752;SDS011;11543;43.144;24.684;2023-03-01T10:15:55;14.60;;;8.60;;
22752;SDS011;11543;43.144;24.684;2023-03-01T10:18:26;12.50;;;7.97;;
22752;SDS011;11543;43.144;24.684;2023-03-01T10:21:00;14.32;;;8.38;;
22752;SDS011;11543;43.144;24.684;2023-03-01T10:23:29;14.40;;;7.95;;
22752;SDS011;11543;43.144;24.684;2023-03-01T10:28:52;11.77;;;7.80;;
22752;SDS011;11543;43.144;24.684;2023-03-01T10:31:27;12.65;;;8.20;;
22752;SDS011;11543;43.144;24.684;2023-03-01T10:34:36;17.05;;;9.55;;
22752;SDS011;11543;43.144;24.684;2023-03-01T10:36:57;12.95;;;8.30;;
22752;SDS011;11543;43.144;24.684;2023-03-01T10:39:33;12.23;;;8.02;;
22752;SDS011;11543;43.144;24.684;2023-03-01T10:42:00;11.40;;;7.85;;
22752;SDS011;11543;43.144;24.684;2023-03-01T10:44:41;13.80;;;8.02;;
22752;SDS011;11543;43.144;24.684;2023-03-01T10:50:03;11.90;;;7.68;;
22752;SDS011;11543;43.144;24.684;2023-03-01T10:52:37;12.98;;;8.20;;
22752;SDS011;11543;43.144;24.684;2023-03-01T10:55:24;12.23;;;8.13;;
22752;SDS011;11543;43.144;24.684;2023-03-01T10:57:50;12.27;;;7.65;;
22752;SDS011;11543;43.144;24.684;2023-03-01T11:00:50;12.98;;;7.57;;
22752;SDS011;11543;43.144;24.684;2023-03-01T11:03:19;12.43;;;7.32;;
22752;SDS011;11543;43.144;24.684;2023-03-01T11:05:51;13.57;;;7.65;;
22752;SDS011;11543;43.144;24.684;2023-03-01T11:11:23;13.80;;;8.13;;
22752;SDS011;11543;43.144;24.684;2023-03-01T11:16:45;14.07;;;8.60;;
22752;SDS011;11543;43.144;24.684;2023-03-01T11:21:39;14.70;;;8.18;;
22752;SDS011;11543;43.144;24.684;2023-03-01T11:24:09;13.95;;;8.15;;
22752;SDS011;11543;43.144;24.684;2023-03-01T11:26:39;13.82;;;8.55;;
22752;SDS011;11543;43.144;24.684;2023-03-01T11:29:12;14.80;;;8.07;;
22752;SDS011;11543;43.144;24.684;2023-03-01T11:32:01;12.38;;;7.70;;
22752;SDS011;11543;43.144;24.684;2023-03-01T11:34:43;13.82;;;7.50;;
22752;SDS011;11543;43.144;24.684;2023-03-01T11:37:44;14.80;;;8.32;;
22752;SDS011;11543;43.144;24.684;2023-03-01T11:43:21;13.20;;;7.90;;
22752;SDS011;11543;43.144;24.684;2023-03-01T11:46:21;13.68;;;7.68;;
22752;SDS011;11543;43.144;24.684;2023-03-01T12:00:03;15.05;;;8.68;;
22752;SDS011;11543;43.144;24.684;2023-03-01T12:11:46;14.82;;;8.73;;
22752;SDS011;11543;43.144;24.684;2023-03-01T12:17:12;16.35;;;9.52;;
22752;SDS011;11543;43.144;24.684;2023-03-01T12:22:52;19.55;;;11.43;;
22752;SDS011;11543;43.144;24.684;2023-03-01T12:25:25;22.25;;;11.98;;
22752;SDS011;11543;43.144;24.684;2023-03-01T12:27:58;19.58;;;10.75;;
22752;SDS011;11543;43.144;24.684;2023-03-01T12:42:01;16.55;;;9.65;;
22752;SDS011;11543;43.144;24.684;2023-03-01T12:50:46;19.60;;;12.15;;
22752;SDS011;11543;43.144;24.684;2023-03-01T12:53:35;22.83;;;13.52;;
22752;SDS011;11543;43.144;24.684;2023-03-01T12:56:05;26.42;;;15.90;;
22752;SDS011;11543;43.144;24.684;2023-03-01T13:09:11;17.90;;;10.02;;
22752;SDS011;11543;43.144;24.684;2023-03-01T13:12:01;17.52;;;10.15;;
22752;SDS011;11543;43.144;24.684;2023-03-01T13:14:36;19.25;;;10.45;;
22752;SDS011;11543;43.144;24.684;2023-03-01T13:17:07;20.73;;;10.68;;
22752;SDS011;11543;43.144;24.684;2023-03-01T13:19:57;17.50;;;9.48;;
22752;SDS011;11543;43.144;24.684;2023-03-01T13:22:28;16.13;;;9.32;;
22752;SDS011;11543;43.144;24.684;2023-03-01T13:25:29;16.10;;;9.40;;
22752;SDS011;11543;43.144;24.684;2023-03-01T13:27:48;17.90;;;10.27;;
22752;SDS011;11543;43.144;24.684;2023-03-01T13:35:56;28.85;;;16.52;;
22752;SDS011;11543;43.144;24.684;2023-03-01T13:44:12;24.02;;;14.43;;
22752;SDS011;11543;43.144;24.684;2023-03-01T13:49:48;23.40;;;14.00;;
22752;SDS011;11543;43.144;24.684;2023-03-01T13:52:35;24.08;;;13.63;;
22752;SDS011;11543;43.144;24.684;2023-03-01T13:58:03;26.70;;;14.10;;
22752;SDS011;11543;43.144;24.684;2023-03-01T14:00:39;23.50;;;13.88;;
22752;SDS011;11543;43.144;24.684;2023-03-01T14:05:39;24.60;;;14.65;;
22752;SDS011;11543;43.144;24.684;2023-03-01T14:08:14;23.30;;;13.80;;
22752;SDS011;11543;43.144;24.684;2023-03-01T14:11:04;24.35;;;14.95;;
22752;SDS011;11543;43.144;24.684;2023-03-01T14:19:23;25.40;;;15.75;;
22752;SDS011;11543;43.144;24.684;2023-03-01T14:24:44;25.95;;;15.60;;
22752;SDS011;11543;43.144;24.684;2023-03-01T14:27:14;23.73;;;13.88;;
22752;SDS011;11543;43.144;24.684;2023-03-01T14:29:41;20.60;;;13.15;;
22752;SDS011;11543;43.144;24.684;2023-03-01T14:32:27;19.92;;;10.50;;
22752;SDS011;11543;43.144;24.684;2023-03-01T14:34:54;16.50;;;9.82;;
22752;SDS011;11543;43.144;24.684;2023-03-01T14:37:25;18.35;;;10.45;;
22752;SDS011;11543;43.144;24.684;2023-03-01T14:39:56;17.00;;;10.73;;
22752;SDS011;11543;43.144;24.684;2023-03-01T14:42:25;19.85;;;10.75;;
22752;SDS011;11543;43.144;24.684;2023-03-01T14:44:55;19.50;;;11.07;;
22752;SDS011;11543;43.144;24.684;2023-03-01T14:47:29;22.52;;;11.55;;
22752;SDS011;11543;43.144;24.684;2023-03-01T14:50:02;50.83;;;30.17;;
22752;SDS011;11543;43.144;24.684;2023-03-01T14:52:45;47.78;;;27.98;;
22752;SDS011;11543;43.144;24.684;2023-03-01T14:55:15;37.20;;;21.55;;
22752;SDS011;11543;43.144;24.684;2023-03-01T14:57:43;28.05;;;18.33;;
22752;SDS011;11543;43.144;24.684;2023-03-01T15:00:16;23.50;;;14.77;;
22752;SDS011;11543;43.144;24.684;2023-03-01T15:02:46;22.60;;;14.07;;
22752;SDS011;11543;43.144;24.684;2023-03-01T15:05:14;22.80;;;15.52;;
22752;SDS011;11543;43.144;24.684;2023-03-01T15:07:41;25.42;;;14.70;;
22752;SDS011;11543;43.144;24.684;2023-03-01T15:10:21;24.00;;;16.13;;
22752;SDS011;11543;43.144;24.684;2023-03-01T15:12:49;20.83;;;13.68;;
22752;SDS011;11543;43.144;24.684;2023-03-01T15:15:22;19.90;;;13.00;;
22752;SDS011;11543;43.144;24.684;2023-03-01T15:17:50;20.85;;;12.02;;
22752;SDS011;11543;43.144;24.684;2023-03-01T15:20:20;20.90;;;11.90;;
22752;SDS011;11543;43.144;24.684;2023-03-01T15:22:50;19.02;;;10.93;;
22752;SDS011;11543;43.144;24.684;2023-03-01T15:25:21;19.13;;;11.02;;
22752;SDS011;11543;43.144;24.684;2023-03-01T15:27:52;20.60;;;12.25;;
22752;SDS011;11543;43.144;24.684;2023-03-01T15:30:23;21.65;;;12.43;;
22752;SDS011;11543;43.144;24.684;2023-03-01T15:35:54;20.50;;;12.15;;
22752;SDS011;11543;43.144;24.684;2023-03-01T15:40:50;17.45;;;11.43;;
22752;SDS011;11543;43.144;24.684;2023-03-01T15:46:03;22.15;;;13.35;;
22752;SDS011;11543;43.144;24.684;2023-03-01T15:48:29;35.22;;;21.13;;
22752;SDS011;11543;43.144;24.684;2023-03-01T15:50:56;26.65;;;17.27;;
22752;SDS011;11543;43.144;24.684;2023-03-01T15:53:23;26.48;;;17.00;;
22752;SDS011;11543;43.144;24.684;2023-03-01T15:55:49;27.92;;;17.27;;
22752;SDS011;11543;43.144;24.684;2023-03-01T15:58:17;32.10;;;20.27;;
22752;SDS011;11543;43.144;24.684;2023-03-01T16:00:46;40.63;;;23.40;;
22752;SDS011;11543;43.144;24.684;2023-03-01T16:03:13;35.15;;;22.30;;
22752;SDS011;11543;43.144;24.684;2023-03-01T16:05:39;31.90;;;18.52;;
22752;SDS011;11543;43.144;24.684;2023-03-01T16:08:05;28.05;;;17.25;;
22752;SDS011;11543;43.144;24.684;2023-03-01T16:10:32;29.85;;;17.02;;
22752;SDS011;11543;43.144;24.684;2023-03-01T16:12:58;25.70;;;15.75;;
22752;SDS011;11543;43.144;24.684;2023-03-01T16:15:27;22.25;;;14.13;;
22752;SDS011;11543;43.144;24.684;2023-03-01T16:20:23;21.13;;;12.73;;
22752;SDS011;11543;43.144;24.684;2023-03-01T16:22:50;27.13;;;16.00;;
22752;SDS011;11543;43.144;24.684;2023-03-01T16:25:16;23.25;;;15.60;;
22752;SDS011;11543;43.144;24.684;2023-03-01T16:27:43;29.08;;;18.40;;
22752;SDS011;11543;43.144;24.684;2023-03-01T16:30:11;25.92;;;16.95;;
22752;SDS011;11543;43.144;24.684;2023-03-01T16:32:38;28.38;;;17.63;;
22752;SDS011;11543;43.144;24.684;2023-03-01T16:35:05;24.17;;;17.05;;
22752;SDS011;11543;43.144;24.684;2023-03-01T16:37:32;25.52;;;16.95;;
22752;SDS011;11543;43.144;24.684;2023-03-01T16:39:58;29.48;;;16.30;;
22752;SDS011;11543;43.144;24.684;2023-03-01T16:42:24;22.60;;;13.90;;
22752;SDS011;11543;43.144;24.684;2023-03-01T16:44:53;24.02;;;15.10;;
22752;SDS011;11543;43.144;24.684;2023-03-01T16:47:20;22.15;;;12.57;;
22752;SDS011;11543;43.144;24.684;2023-03-01T16:49:45;23.15;;;12.63;;